Time;durP1;ratioP1;P1;durP2;ratioP2;P2;SDS_P1;SDS_P2;PMS_P1;PMS_P2;Temp;Humidity;BMP_temperature;BMP_pressure;BME280_temperature;BME280_humidity;BME280_pressure;Samples;Min_cycle;Max_cycle;Signal;HPM_P1;HPM_P2
2021/11/07 00:00:27;;;;;;;18.63;16.83;;;;;;;10.34;81.63;100828.06;5080688;28;20386;-70
2021/11/07 00:03:06;;;;;;;20.10;17.93;;;;;;;10.12;82.37;100822.56;5063761;28;20410;-69
2021/11/07 00:05:36;;;;;;;20.87;18.27;;;;;;;10.05;83.14;100832.03;5080519;28;20389;-70
2021/11/07 00:10:53;;;;;;;24.23;18.83;;;;;;;10.15;83.90;100812.19;5080246;28;20476;-69
2021/11/07 00:15:44;;;;;;;21.30;19.00;;;;;;;9.92;85.29;100798.88;5080282;28;20390;-70
2021/11/07 00:18:14;;;;;;;19.23;17.27;;;;;;;10.06;84.21;100807.72;5080243;28;20189;-69
2021/11/07 00:20:49;;;;;;;21.00;18.83;;;;;;;10.01;85.25;100793.78;5080714;28;20522;-70
2021/11/07 00:25:57;;;;;;;20.67;18.10;;;;;;;10.01;84.90;100785.09;5080380;28;20413;-70
2021/11/07 00:28:31;;;;;;;20.60;18.50;;;;;;;10.00;85.14;100776.41;5080131;28;20442;-70
2021/11/07 00:44:04;;;;;;;19.23;17.20;;;;;;;10.07;84.61;100741.75;5058990;28;20511;-70
2021/11/07 00:49:08;;;;;;;19.23;17.40;;;;;;;9.83;85.66;100716.28;5059711;28;20467;-70
2021/11/07 00:51:42;;;;;;;20.53;18.53;;;;;;;9.82;86.40;100713.66;5059464;28;20735;-70
2021/11/07 01:01:39;;;;;;;19.57;17.77;;;;;;;10.01;84.62;100683.50;5059483;28;20728;-70
2021/11/07 01:04:06;;;;;;;19.13;16.33;;;;;;;9.70;86.28;100678.84;5042771;28;20512;-69
2021/11/07 01:06:32;;;;;;;18.90;17.00;;;;;;;9.86;85.67;100674.66;5060044;28;20416;-69
2021/11/07 01:08:58;;;;;;;17.93;16.30;;;;;;;9.94;85.59;100666.94;5059721;28;20836;-69
2021/11/07 01:11:24;;;;;;;18.27;16.47;;;;;;;9.91;85.32;100672.97;5041709;28;20431;-70
2021/11/07 01:13:49;;;;;;;18.27;16.67;;;;;;;10.04;85.25;100662.69;5059230;28;20523;-69
2021/11/07 01:16:16;;;;;;;18.17;16.50;;;;;;;9.88;85.67;100666.88;5059685;28;20252;-70
2021/11/07 01:18:41;;;;;;;17.87;16.07;;;;;;;9.88;85.97;100662.53;5059421;28;20201;-70
2021/11/07 01:21:11;;;;;;;17.30;15.60;;;;;;;9.73;86.60;100657.16;5059125;28;20387;-70
2021/11/07 01:23:46;;;;;;;16.87;15.27;;;;;;;9.74;86.49;100657.19;5059337;28;20212;-69
2021/11/07 01:26:20;;;;;;;17.03;15.37;;;;;;;9.71;86.82;100648.47;5059249;28;20413;-69
2021/11/07 01:28:49;;;;;;;16.80;15.30;;;;;;;9.72;86.49;100639.78;5059085;28;20510;-70
2021/11/07 01:31:14;;;;;;;16.10;14.70;;;;;;;9.75;87.02;100640.69;5059140;28;20883;-70
2021/11/07 01:33:40;;;;;;;16.03;14.63;;;;;;;9.77;86.51;100618.16;5041578;28;20498;-70
2021/11/07 01:38:49;;;;;;;16.30;14.10;;;;;;;9.66;86.85;100635.41;5095385;28;20176;-69
2021/11/07 01:41:23;;;;;;;15.13;13.73;;;;;;;9.88;86.43;100630.44;5099123;28;20178;-69
2021/11/07 01:43:50;;;;;;;15.93;14.30;;;;;;;9.94;85.71;100633.09;5099203;28;20464;-70
2021/11/07 01:49:04;;;;;;;18.67;13.33;;;;;;;9.96;85.81;100610.56;5098927;28;20703;-70
2021/11/07 01:51:31;;;;;;;14.97;13.43;;;;;;;9.89;86.14;100611.31;5098729;28;20751;-70
2021/11/07 01:54:09;;;;;;;15.67;14.27;;;;;;;9.94;86.17;100604.44;5098936;28;20425;-70
2021/11/07 01:56:35;;;;;;;15.33;13.93;;;;;;;10.18;85.53;100598.59;5098684;28;20505;-70
2021/11/07 01:59:00;;;;;;;15.37;14.07;;;;;;;9.82;86.33;100596.50;5098772;28;20413;-70
2021/11/07 02:01:26;;;;;;;15.50;14.10;;;;;;;9.94;86.46;100594.91;5098765;28;20215;-70
2021/11/07 02:03:51;;;;;;;14.27;12.97;;;;;;;9.91;86.43;100588.78;5099383;28;20226;-69
2021/11/07 02:06:17;;;;;;;14.23;12.83;;;;;;;10.11;85.27;100586.38;5081036;28;20477;-70
2021/11/07 02:08:43;;;;;;;14.33;13.03;;;;;;;10.08;85.83;100575.91;5098628;28;20254;-70
2021/11/07 02:11:09;;;;;;;13.90;12.50;;;;;;;10.00;85.76;100577.56;5098907;28;20489;-70
2021/11/07 02:13:34;;;;;;;14.40;13.13;;;;;;;9.83;86.41;100559.22;5080946;28;20490;-69
2021/11/07 02:16:02;;;;;;;13.87;12.67;;;;;;;10.09;85.91;100572.47;5098741;28;20180;-69
2021/11/07 02:18:28;;;;;;;13.20;12.10;;;;;;;9.91;86.39;100562.75;5081732;28;20196;-70
2021/11/07 02:20:53;;;;;;;13.00;11.80;;;;;;;9.94;86.86;100554.97;5080907;28;20534;-70
2021/11/07 02:23:21;;;;;;;14.13;12.73;;;;;;;9.99;86.30;100550.69;5098452;28;20446;-70
2021/11/07 02:25:48;;;;;;;14.33;13.10;;;;;;;9.88;86.59;100550.56;5098840;28;20265;-70
2021/11/07 02:28:28;;;;;;;15.10;13.60;;;;;;;10.16;85.38;100536.91;5098216;28;20493;-70
2021/11/07 02:30:53;;;;;;;13.70;12.00;;;;;;;9.80;86.61;100549.63;5098348;28;20392;-70
2021/11/07 02:33:19;;;;;;;14.07;12.87;;;;;;;10.20;85.40;100534.38;5098380;28;20400;-70
2021/11/07 02:35:44;;;;;;;13.70;12.40;;;;;;;9.94;85.42;100534.13;5098554;28;20168;-70
2021/11/07 02:38:09;;;;;;;14.97;13.40;;;;;;;9.99;85.74;100534.19;5065720;28;20184;-70
2021/11/07 02:40:35;;;;;;;13.33;11.83;;;;;;;9.89;86.64;100528.91;5077987;28;20207;-70
2021/11/07 02:43:01;;;;;;;14.80;13.50;;;;;;;10.00;85.95;100513.38;5077811;28;20168;-71
2021/11/07 02:45:28;;;;;;;14.80;13.50;;;;;;;9.88;86.05;100505.44;5078503;28;20193;-70
2021/11/07 02:47:54;;;;;;;13.87;12.70;;;;;;;10.20;85.11;100512.63;5078015;28;20164;-69
2021/11/07 02:50:19;;;;;;;13.37;12.27;;;;;;;10.22;84.53;100517.00;5077738;28;20528;-70
2021/11/07 02:52:46;;;;;;;12.80;11.50;;;;;;;10.34;83.88;100516.22;5078364;28;20161;-70
2021/11/07 02:55:12;;;;;;;11.90;10.90;;;;;;;10.05;85.07;100498.66;5077818;28;20173;-71
2021/11/07 02:57:41;;;;;;;12.77;11.67;;;;;;;10.00;85.60;100504.66;5078064;28;20411;-70
2021/11/07 03:00:09;;;;;;;12.40;11.20;;;;;;;10.16;85.28;100508.25;5078411;28;20653;-70
2021/11/07 03:02:35;;;;;;;13.07;11.97;;;;;;;10.20;85.79;100497.00;5077618;28;20385;-70
2021/11/07 03:05:03;;;;;;;12.77;11.57;;;;;;;10.16;86.10;100492.63;5060532;28;20704;-70
2021/11/07 03:07:28;;;;;;;12.07;11.00;;;;;;;10.11;85.43;100492.59;5079579;28;20730;-70
2021/11/07 03:09:54;;;;;;;11.60;10.70;;;;;;;9.97;86.27;100484.66;5081676;28;20467;-69
2021/11/07 03:12:19;;;;;;;12.33;11.23;;;;;;;10.26;85.37;100479.69;5082537;28;20172;-70
2021/11/07 03:14:48;;;;;;;12.80;11.70;;;;;;;10.26;85.35;100476.22;5082717;28;20169;-69
2021/11/07 03:17:15;;;;;;;10.97;9.90;;;;;;;11.37;82.57;100470.66;5081847;28;20573;-61
2021/11/07 03:19:41;;;;;;;11.10;10.20;;;;;;;11.52;82.18;100464.56;5081458;28;20419;-61
2021/11/07 03:22:12;;;;;;;10.80;9.80;;;;;;;11.82;81.50;100457.63;5081661;28;20406;-61
2021/11/07 03:24:40;;;;;;;10.50;9.60;;;;;;;10.82;81.86;100466.97;5081341;28;20463;-70
2021/11/07 03:27:13;;;;;;;10.83;10.03;;;;;;;10.29;85.46;100486.66;5081722;28;20392;-70
2021/11/07 03:29:42;;;;;;;11.20;10.23;;;;;;;10.16;85.98;100480.50;5081263;28;20456;-69
2021/11/07 03:32:21;;;;;;;11.50;10.50;;;;;;;10.08;86.59;100484.75;5081163;28;20419;-71
2021/11/07 03:34:50;;;;;;;11.40;10.40;;;;;;;9.93;87.60;100482.91;5081296;28;20418;-70
2021/11/07 03:37:22;;;;;;;12.27;11.07;;;;;;;9.99;87.19;100472.53;5088766;28;20422;-72
2021/11/07 03:39:49;;;;;;;12.13;11.13;;;;;;;9.90;88.16;100482.88;5081106;28;20423;-72
2021/11/07 03:42:15;;;;;;;11.90;10.90;;;;;;;10.11;87.05;100482.19;5080946;28;20451;-71
2021/11/07 03:44:40;;;;;;;11.30;10.20;;;;;;;10.09;87.46;100487.41;5081315;28;20696;-70
2021/11/07 03:47:06;;;;;;;11.60;10.50;;;;;;;10.14;87.36;100476.13;5080797;28;20448;-72
2021/11/07 03:49:32;;;;;;;11.03;10.03;;;;;;;10.07;87.03;100472.63;5080581;28;20510;-72
2021/11/07 03:51:58;;;;;;;10.53;9.63;;;;;;;10.04;87.11;100470.84;5080505;28;20440;-74
2021/11/07 03:54:25;;;;;;;9.60;8.90;;;;;;;10.39;86.34;100477.19;5080706;28;20183;-73
2021/11/07 03:56:51;;;;;;;9.30;8.50;;;;;;;9.87;88.19;100473.31;5080847;28;20871;-75
2021/11/07 03:59:16;;;;;;;9.30;8.60;;;;;;;10.22;85.96;100461.44;5080703;28;20451;-74
2021/11/07 04:01:42;;;;;;;8.40;7.70;;;;;;;10.04;87.13;100459.53;5080492;28;20200;-75
2021/11/07 04:04:08;;;;;;;9.03;8.23;;;;;;;10.18;86.69;100468.34;5080833;28;20165;-73
2021/11/07 04:06:36;;;;;;;9.00;8.30;;;;;;;10.02;87.39;100467.34;5083540;28;20534;-74
2021/11/07 04:09:02;;;;;;;8.40;7.60;;;;;;;10.01;87.04;100463.03;5080673;28;20466;-74
2021/11/07 04:11:27;;;;;;;8.37;7.30;;;;;;;10.14;86.44;100455.28;5080758;28;20415;-74
2021/11/07 04:13:53;;;;;;;8.17;7.47;;;;;;;10.28;86.31;100444.09;5080358;28;20415;-74
2021/11/07 04:16:18;;;;;;;7.67;7.03;;;;;;;10.29;85.67;100448.44;5080280;28;20171;-74
2021/11/07 04:18:44;;;;;;;9.17;6.60;;;;;;;10.30;85.89;100446.72;5079592;28;20431;-74
2021/11/07 04:21:10;;;;;;;7.37;6.77;;;;;;;10.38;84.94;100444.19;5080390;28;20432;-75
2021/11/07 04:23:36;;;;;;;7.23;6.53;;;;;;;10.02;86.64;100435.25;5080297;28;20415;-73
2021/11/07 04:26:03;;;;;;;6.57;5.93;;;;;;;10.25;85.58;100438.00;5080678;28;20247;-74
2021/11/07 04:28:28;;;;;;;8.17;6.10;;;;;;;10.18;85.92;100431.88;5080237;28;20769;-74
2021/11/07 04:30:54;;;;;;;5.93;5.37;;;;;;;10.05;86.22;100423.13;5079953;28;20386;-74
2021/11/07 04:33:21;;;;;;;5.67;5.13;;;;;;;10.02;86.32;100432.63;5080333;28;20494;-72
2021/11/07 04:35:47;;;;;;;5.77;5.20;;;;;;;10.11;85.53;100419.69;5079908;28;20415;-73
2021/11/07 04:38:12;;;;;;;7.43;5.13;;;;;;;9.97;86.45;100427.38;5095575;28;20404;-73
2021/11/07 04:40:38;;;;;;;5.83;5.03;;;;;;;9.98;86.31;100425.66;5100623;28;20175;-74
2021/11/07 04:43:03;;;;;;;6.37;4.63;;;;;;;9.92;86.41;100423.91;5082532;28;20176;-74
2021/11/07 04:45:28;;;;;;;4.70;4.30;;;;;;;9.91;85.94;100422.16;5100074;28;20191;-73
2021/11/07 04:47:55;;;;;;;4.87;4.17;;;;;;;10.11;85.31;100420.53;5081900;28;20314;-72
2021/11/07 04:50:20;;;;;;;4.53;3.97;;;;;;;10.14;85.24;100426.66;5079603;28;20231;-70
2021/11/07 04:52:46;;;;;;;4.00;3.70;;;;;;;10.04;84.71;100423.09;5079594;28;20490;-70
2021/11/07 04:55:11;;;;;;;4.67;4.17;;;;;;;10.12;84.92;100426.63;5080121;28;20165;-71
2021/11/07 04:57:43;;;;;;;5.80;4.03;;;;;;;10.22;83.87;100411.94;5079535;28;20579;-70
2021/11/07 05:00:20;;;;;;;5.10;3.90;;;;;;;10.21;84.32;100404.97;5063141;28;20437;-72
2021/11/07 05:02:47;;;;;;;6.50;4.20;;;;;;;10.37;82.48;100412.03;5079527;28;20430;-71
2021/11/07 05:05:14;;;;;;;9.53;4.30;;;;;;;10.56;83.01;100417.34;5062197;28;20411;-69
2021/11/07 05:07:39;;;;;;;10.20;4.10;;;;;;;10.36;82.91;100415.50;5063458;28;20404;-68
2021/11/07 05:10:05;;;;;;;7.43;3.67;;;;;;;10.24;83.44;100408.47;5079658;28;20462;-69
2021/11/07 05:12:31;;;;;;;7.90;3.70;;;;;;;10.53;82.04;100412.13;5079204;28;20176;-69
2021/11/07 05:14:56;;;;;;;6.63;3.70;;;;;;;10.54;81.73;100412.13;5079900;28;20415;-69
2021/11/07 05:17:22;;;;;;;9.10;3.77;;;;;;;10.24;81.71;100413.69;5079210;28;20275;-72
2021/11/07 05:19:48;;;;;;;11.23;4.03;;;;;;;10.38;81.66;100395.53;5079291;28;20172;-70
2021/11/07 05:22:13;;;;;;;7.20;4.13;;;;;;;10.47;81.69;100388.63;5079460;28;20165;-69
2021/11/07 05:24:39;;;;;;;5.20;4.37;;;;;;;10.11;82.63;100389.28;5079025;28;20633;-70
2021/11/07 05:27:04;;;;;;;7.73;4.00;;;;;;;10.08;83.53;100394.47;5079143;28;20173;-70
2021/11/07 05:29:29;;;;;;;7.33;4.40;;;;;;;10.20;82.59;100392.81;5078819;28;20200;-69
2021/11/07 05:31:56;;;;;;;5.97;4.63;;;;;;;9.82;85.08;100396.91;5078842;28;20181;-70
2021/11/07 05:34:22;;;;;;;9.37;5.53;;;;;;;10.18;83.74;100399.75;5061538;28;20214;-71
2021/11/07 05:36:47;;;;;;;8.53;5.70;;;;;;;10.21;84.24;100404.97;5082971;28;20418;-70
2021/11/07 05:39:13;;;;;;;9.83;6.70;;;;;;;10.20;83.99;100398.00;5099173;28;20172;-71
2021/11/07 05:41:38;;;;;;;9.90;6.20;;;;;;;10.21;84.23;100399.75;5098892;28;20191;-73
2021/11/07 05:44:04;;;;;;;10.23;5.60;;;;;;;10.21;84.51;100404.97;5099352;28;20173;-71
2021/11/07 05:46:31;;;;;;;11.63;6.20;;;;;;;10.08;84.25;100410.09;5092374;28;20181;-70
2021/11/07 05:48:57;;;;;;;9.13;5.33;;;;;;;10.35;83.62;100412.88;5078488;28;20204;-70
2021/11/07 05:51:22;;;;;;;8.33;5.57;;;;;;;10.32;83.48;100418.91;5081451;28;20464;-72
2021/11/07 05:53:48;;;;;;;7.73;5.30;;;;;;;10.38;83.79;100410.31;5098753;28;20430;-72
2021/11/07 05:56:13;;;;;;;9.07;5.33;;;;;;;10.54;82.67;100419.06;5098401;28;20172;-73
2021/11/07 05:58:38;;;;;;;10.70;5.37;;;;;;;10.29;83.86;100413.69;5098514;28;20195;-68
2021/11/07 06:01:04;;;;;;;10.30;4.60;;;;;;;10.30;83.69;100412.84;5098360;28;20208;-67
2021/11/07 06:03:30;;;;;;;7.40;4.57;;;;;;;10.24;83.66;100416.28;5099045;28;20242;-69
2021/11/07 06:05:55;;;;;;;10.83;4.80;;;;;;;10.53;82.28;100417.34;5098632;28;20180;-69
2021/11/07 06:08:21;;;;;;;13.20;5.60;;;;;;;10.14;84.05;100422.28;5097880;28;20210;-69
2021/11/07 06:10:46;;;;;;;11.17;5.23;;;;;;;10.25;83.51;100402.38;5098237;28;20203;-70
2021/11/07 06:13:12;;;;;;;11.00;5.10;;;;;;;10.10;83.63;100413.56;5098541;28;20468;-68
2021/11/07 06:15:37;;;;;;;18.30;5.40;;;;;;;10.01;83.98;100410.94;5098606;28;20433;-68
2021/11/07 06:18:03;;;;;;;16.10;5.00;;;;;;;10.31;83.61;100411.09;5098808;28;20206;-69
2021/11/07 06:20:28;;;;;;;14.37;5.40;;;;;;;10.52;82.31;100415.59;5097882;28;20180;-69
2021/11/07 06:22:54;;;;;;;8.43;4.80;;;;;;;10.34;82.72;100412.00;5098400;28;20164;-68
2021/11/07 06:25:19;;;;;;;12.50;4.70;;;;;;;10.27;82.57;100416.28;5098872;28;20247;-68
2021/11/07 06:27:45;;;;;;;15.63;5.10;;;;;;;10.47;81.61;100427.72;5098377;28;20225;-69
2021/11/07 06:30:11;;;;;;;10.13;4.70;;;;;;;10.25;82.50;100428.44;5098339;28;20174;-69
2021/11/07 06:32:36;;;;;;;12.40;5.03;;;;;;;10.43;81.76;100426.81;5098600;28;20199;-68
2021/11/07 06:35:05;;;;;;;9.13;5.23;;;;;;;10.26;82.03;100424.09;5098295;28;20487;-68
2021/11/07 06:37:30;;;;;;;12.37;4.63;;;;;;;10.48;81.30;100424.25;5098315;28;20172;-68
2021/11/07 06:39:56;;;;;;;12.03;4.53;;;;;;;10.51;80.48;100414.69;5098668;28;20622;-69
2021/11/07 06:42:21;;;;;;;12.73;4.40;;;;;;;10.33;81.14;100412.00;5099488;28;20183;-68
2021/11/07 06:44:46;;;;;;;10.93;4.43;;;;;;;10.01;79.48;100416.16;5101715;28;20168;-69
2021/11/07 06:47:12;;;;;;;9.70;4.00;;;;;;;10.26;78.89;100419.75;5102899;28;20192;-68
2021/11/07 06:49:38;;;;;;;9.47;4.40;;;;;;;10.27;77.84;100418.03;5102672;28;20207;-68
2021/11/07 06:52:04;;;;;;;11.13;4.83;;;;;;;10.50;76.19;100425.13;5085164;28;20429;-68
2021/11/07 06:54:29;;;;;;;12.90;4.47;;;;;;;10.23;77.63;100430.16;5082416;28;20471;-69
2021/11/07 06:56:54;;;;;;;15.43;5.47;;;;;;;10.37;78.21;100432.88;5081692;28;20423;-68
2021/11/07 06:59:20;;;;;;;13.43;5.30;;;;;;;10.48;78.66;100440.75;5081676;28;20514;-69
2021/11/07 07:01:45;;;;;;;15.23;5.30;;;;;;;10.55;78.30;100447.75;5081827;28;20173;-69
2021/11/07 07:04:11;;;;;;;15.57;5.20;;;;;;;10.38;79.88;100454.63;5081690;28;20169;-69
2021/11/07 07:06:37;;;;;;;10.93;4.90;;;;;;;10.20;79.47;100448.41;5081669;28;20330;-68
2021/11/07 07:09:07;;;;;;;12.77;4.47;;;;;;;10.38;79.46;100439.84;5081946;28;20200;-69
2021/11/07 07:11:37;;;;;;;15.10;5.63;;;;;;;10.22;79.97;100437.97;5081323;28;20201;-69
2021/11/07 07:14:09;;;;;;;12.03;4.17;;;;;;;10.56;77.82;100431.22;5081595;28;20411;-71
2021/11/07 07:24:56;;;;;;;10.57;4.40;;;;;;;10.47;77.21;100441.59;5081295;28;20472;-68
2021/11/07 07:34:53;;;;;;;11.30;4.07;;;;;;;10.48;76.17;100442.50;5081247;28;20866;-69
2021/11/07 07:37:20;;;;;;;13.27;5.03;;;;;;;10.59;76.54;100441.69;5080832;28;20524;-68
2021/11/07 07:39:45;;;;;;;13.77;7.03;;;;;;;10.45;76.99;100452.03;5080997;28;20665;-69
2021/11/07 07:42:10;;;;;;;11.30;4.10;;;;;;;10.59;76.06;100444.31;5081260;28;20404;-69
2021/11/07 07:44:36;;;;;;;13.10;4.47;;;;;;;10.37;77.44;100464.16;5080820;28;20242;-69
2021/11/07 07:47:01;;;;;;;10.10;4.60;;;;;;;10.84;74.44;100464.38;5080741;28;20500;-68
2021/11/07 07:49:27;;;;;;;14.67;4.80;;;;;;;10.89;73.78;100453.13;5081554;28;20311;-69
2021/11/07 07:51:55;;;;;;;11.90;5.07;;;;;;;10.86;74.60;100462.66;5080637;28;20228;-69
2021/11/07 07:54:20;;;;;;;13.17;4.70;;;;;;;10.71;74.41;100453.03;5080431;28;20177;-68
2021/11/07 07:56:46;;;;;;;15.10;4.80;;;;;;;10.80;73.12;100455.69;5081003;28;20421;-69
2021/11/07 07:59:11;;;;;;;8.30;4.03;;;;;;;10.60;74.26;100450.38;5080470;28;20549;-68
2021/11/07 08:01:36;;;;;;;10.60;3.70;;;;;;;10.67;73.59;100451.28;5080367;28;20183;-69
2021/11/07 08:04:02;;;;;;;10.20;4.23;;;;;;;10.63;73.29;100449.53;5081032;28;20164;-68
2021/11/07 08:06:28;;;;;;;10.90;3.93;;;;;;;10.52;73.38;100446.88;5080465;28;20449;-68
2021/11/07 08:08:53;;;;;;;7.80;4.03;;;;;;;11.23;69.93;100450.59;5080679;28;20310;-68
2021/11/07 08:11:18;;;;;;;9.23;5.27;;;;;;;11.17;70.87;100441.88;5080911;28;20177;-69
2021/11/07 08:13:47;;;;;;;7.63;3.90;;;;;;;11.63;68.12;100442.81;5080458;28;20177;-69
2021/11/07 08:16:13;;;;;;;8.70;4.50;;;;;;;12.47;65.08;100437.50;5080331;28;20502;-69
2021/11/07 08:18:39;;;;;;;7.77;3.90;;;;;;;11.73;68.35;100448.94;5079948;28;20450;-69
2021/11/07 08:21:05;;;;;;;13.33;5.03;;;;;;;11.27;70.00;100459.28;5080168;28;20227;-70
2021/11/07 08:23:31;;;;;;;7.57;3.47;;;;;;;10.97;70.13;100466.16;5080220;28;20180;-69
2021/11/07 08:25:57;;;;;;;10.60;4.03;;;;;;;11.05;71.00;100458.38;5080840;28;20165;-70
2021/11/07 08:28:22;;;;;;;6.97;3.70;;;;;;;10.97;71.46;100455.72;5080170;28;20862;-69
2021/11/07 08:30:53;;;;;;;9.50;4.13;;;;;;;10.81;71.84;100460.03;5079815;28;20422;-68
2021/11/07 08:33:18;;;;;;;12.93;4.60;;;;;;;11.83;66.80;100465.47;5080467;28;20169;-70
2021/11/07 08:35:45;;;;;;;9.13;4.30;;;;;;;12.32;65.44;100454.13;5080031;28;20479;-69
2021/11/07 08:38:15;;;;;;;9.33;4.40;;;;;;;11.41;68.24;100470.63;5079936;28;20304;-69
2021/11/07 08:40:50;;;;;;;10.23;3.70;;;;;;;11.19;69.17;100472.34;5046780;28;20397;-69
2021/11/07 09:09:44;;;;;;;10.03;4.20;;;;;;;13.86;61.42;100462.09;5061892;28;20879;-69
2021/11/07 09:12:10;;;;;;;12.47;5.07;;;;;;;13.52;63.52;100457.06;5079024;28;20173;-70
2021/11/07 09:14:37;;;;;;;9.93;4.90;;;;;;;12.75;66.33;100471.44;5079808;28;20410;-69
2021/11/07 09:17:05;;;;;;;14.43;4.97;;;;;;;12.27;66.17;100472.44;5079026;28;20538;-69
2021/11/07 09:19:32;;;;;;;10.97;4.50;;;;;;;11.69;67.88;100488.97;5079129;28;20419;-69
2021/11/07 09:22:06;;;;;;;10.13;5.60;;;;;;;11.74;69.33;100481.97;5079491;28;20411;-70
2021/11/07 09:24:37;;;;;;;15.73;7.30;;;;;;;12.09;67.77;100475.91;5079077;28;20803;-69
2021/11/07 09:27:11;;;;;;;14.20;4.70;;;;;;;12.35;67.79;100475.00;5078995;28;20468;-70
2021/11/07 09:29:56;;;;;;;9.57;4.63;;;;;;;12.37;66.69;100483.72;5078903;28;20451;-72
2021/11/07 09:34:57;;;;;;;11.80;5.20;;;;;;;13.44;65.28;100465.00;5079070;28;20423;-61
2021/11/07 09:37:42;;;;;;;12.80;4.80;;;;;;;14.40;60.72;100472.91;5078734;28;20263;-60
2021/11/07 09:40:12;;;;;;;14.93;5.03;;;;;;;14.48;59.83;100468.47;5078825;28;20407;-60
2021/11/07 09:45:21;;;;;;;11.10;4.27;;;;;;;12.76;64.44;100473.19;5083272;28;20430;-60
2021/11/07 09:47:52;;;;;;;11.93;4.50;;;;;;;13.97;64.67;100468.09;5095068;28;20176;-59
2021/11/07 09:50:18;;;;;;;13.80;4.20;;;;;;;13.33;60.90;100478.13;5061696;28;20467;-70
2021/11/07 09:52:52;;;;;;;13.87;4.97;;;;;;;14.19;58.87;100465.28;5082882;28;20417;-69
2021/11/07 09:55:19;;;;;;;9.23;4.30;;;;;;;13.32;59.80;100477.25;5098633;28;20168;-69
2021/11/07 09:57:46;;;;;;;9.90;4.60;;;;;;;13.89;58.63;100469.91;5098675;28;20484;-71
2021/11/07 10:00:18;;;;;;;7.70;3.60;;;;;;;12.77;58.79;100481.03;5081073;28;20840;-69
2021/11/07 10:02:44;;;;;;;8.60;3.70;;;;;;;12.87;59.46;100478.38;5081359;28;20419;-68
2021/11/07 10:05:11;;;;;;;10.30;4.20;;;;;;;13.24;58.39;100472.94;5078605;28;20417;-69
2021/11/07 10:07:39;;;;;;;10.10;3.70;;;;;;;12.97;59.44;100474.81;5078497;28;20165;-69
2021/11/07 10:10:14;;;;;;;5.53;3.23;;;;;;;13.40;58.87;100473.75;5078042;28;20467;-69
2021/11/07 10:12:44;;;;;;;9.47;4.03;;;;;;;13.91;57.51;100473.38;5078014;28;20623;-68
2021/11/07 10:15:25;;;;;;;11.77;5.00;;;;;;;15.09;54.12;100476.50;5078140;28;20410;-71
2021/11/07 10:17:58;;;;;;;11.97;4.03;;;;;;;14.79;54.81;100473.38;5078417;28;20433;-67
2021/11/07 10:20:28;;;;;;;9.70;4.53;;;;;;;15.09;54.00;100479.13;5098365;28;20487;-71
2021/11/07 10:23:22;;;;;;;11.40;3.93;;;;;;;14.60;55.11;100477.97;5098191;28;20501;-70
2021/11/07 10:25:57;;;;;;;9.70;4.10;;;;;;;13.80;57.40;100494.41;5098160;28;20819;-69
2021/11/07 10:28:29;;;;;;;9.10;4.67;;;;;;;12.85;61.89;100498.41;5098128;28;20874;-69
2021/11/07 10:31:29;;;;;;;9.30;4.20;;;;;;;12.62;63.91;100481.06;5098176;28;20414;-69
2021/11/07 10:45:23;;;;;;;11.27;4.50;;;;;;;14.46;57.61;100485.97;5098062;28;20412;-71
2021/11/07 10:48:16;;;;;;;12.47;5.40;;;;;;;15.18;56.65;100475.53;5098034;28;20503;-71
2021/11/07 10:53:38;;;;;;;9.40;5.30;;;;;;;14.91;56.83;100468.88;5103618;28;20830;-71
2021/11/07 10:56:07;;;;;;;11.50;4.33;;;;;;;14.02;58.69;100465.41;5098039;28;20501;-71
2021/11/07 10:58:35;;;;;;;10.60;4.60;;;;;;;13.12;61.29;100468.63;5097763;28;20277;-71
2021/11/07 11:01:04;;;;;;;11.30;4.70;;;;;;;12.63;63.04;100477.56;5097728;28;20679;-71
2021/11/07 11:03:30;;;;;;;9.53;4.40;;;;;;;12.51;63.63;100490.69;5097824;28;20528;-71
2021/11/07 11:06:04;;;;;;;11.20;4.50;;;;;;;12.33;63.75;100479.38;5098100;28;20452;-71
2021/11/07 11:08:35;;;;;;;13.37;4.57;;;;;;;13.02;59.53;100478.28;5098188;28;20179;-71
2021/11/07 11:13:51;;;;;;;9.10;4.20;;;;;;;13.53;56.06;100466.69;5098039;28;20417;-71
2021/11/07 11:28:09;;;;;;;10.27;4.10;;;;;;;14.02;54.25;100466.31;5097648;28;20385;-71
2021/11/07 11:30:46;;;;;;;9.50;4.00;;;;;;;14.10;53.36;100466.25;5098405;28;20458;-73
2021/11/07 11:36:04;;;;;;;7.17;3.90;;;;;;;12.76;57.75;100476.66;5101862;28;20414;-70
2021/11/07 11:38:42;;;;;;;9.87;3.90;;;;;;;12.44;58.59;100495.91;5101271;28;20416;-71
2021/11/07 11:43:45;;;;;;;9.07;3.80;;;;;;;11.24;67.56;100507.16;5101252;28;20842;-71
2021/11/07 11:46:33;;;;;;;6.80;3.87;;;;;;;11.04;68.63;100516.63;5101221;28;20436;-72
2021/11/07 11:57:32;;;;;;;11.33;3.80;;;;;;;12.74;65.25;100478.38;5101118;28;20487;-71
2021/11/07 12:13:56;;;;;;;9.83;5.03;;;;;;;12.99;63.30;100457.38;5100578;28;20426;-72
2021/11/07 12:16:51;;;;;;;11.30;4.00;;;;;;;13.07;62.95;100454.69;5083855;28;20636;-71
2021/11/07 12:19:18;;;;;;;9.80;4.37;;;;;;;13.09;62.80;100451.19;5091938;28;20418;-70
2021/11/07 12:22:04;;;;;;;11.20;4.40;;;;;;;13.06;62.26;100445.13;5100407;28;20778;-70
2021/11/07 12:24:54;;;;;;;10.37;4.27;;;;;;;12.82;62.34;100453.97;5100453;28;20385;-70
2021/11/07 12:27:27;;;;;;;8.30;3.70;;;;;;;12.80;62.65;100451.38;5100391;28;20651;-70
2021/11/07 12:30:10;;;;;;;9.10;4.20;;;;;;;12.71;62.29;100441.78;5100340;28;20424;-70
2021/11/07 12:32:37;;;;;;;9.70;3.93;;;;;;;12.49;63.30;100440.13;5100217;28;20425;-71
2021/11/07 12:40:49;;;;;;;12.30;4.47;;;;;;;12.03;65.18;100447.19;5100513;28;20459;-69
2021/11/07 12:43:14;;;;;;;11.20;4.93;;;;;;;12.43;64.16;100446.25;5100201;28;20393;-70
2021/11/07 12:45:48;;;;;;;11.23;4.70;;;;;;;12.92;63.56;100435.59;5100137;28;20591;-69
2021/11/07 12:48:47;;;;;;;9.20;4.20;;;;;;;12.52;64.63;100454.06;5099994;28;20171;-70
2021/11/07 12:51:18;;;;;;;11.83;4.60;;;;;;;12.74;64.03;100446.16;5099572;28;20532;-69
2021/11/07 12:54:09;;;;;;;13.50;4.60;;;;;;;12.15;65.12;100458.50;5084609;28;20528;-69
2021/11/07 12:56:45;;;;;;;12.17;5.00;;;;;;;11.79;67.76;100475.03;5079638;28;20389;-70
2021/11/07 12:59:16;;;;;;;15.07;5.20;;;;;;;11.43;71.60;100489.81;5079529;28;20415;-70
2021/11/07 13:02:04;;;;;;;16.43;5.57;;;;;;;11.51;72.17;100487.19;5079541;28;20802;-69
2021/11/07 13:04:32;;;;;;;18.97;5.03;;;;;;;10.84;74.03;100475.69;5062152;28;20419;-69
2021/11/07 13:06:59;;;;;;;10.47;5.33;;;;;;;11.35;73.04;100481.09;5061982;28;20423;-68
2021/11/07 13:09:37;;;;;;;10.30;4.40;;;;;;;11.36;71.02;100480.19;5079274;28;20550;-69
2021/11/07 13:12:12;;;;;;;16.50;4.37;;;;;;;11.63;70.91;100468.06;5079052;28;20410;-69
2021/11/07 13:15:19;;;;;;;7.87;4.27;;;;;;;11.48;69.07;100457.63;5079334;28;20489;-69
2021/11/07 13:18:24;;;;;;;8.73;3.87;;;;;;;11.51;69.31;100468.06;5040135;28;20448;-67
2021/11/07 13:26:48;;;;;;;11.10;4.20;;;;;;;11.23;71.20;100470.59;5079041;28;20411;-70
2021/11/07 13:32:00;;;;;;;13.13;5.00;;;;;;;11.22;71.13;100484.53;5078841;28;20411;-69
2021/11/07 13:34:27;;;;;;;12.33;5.20;;;;;;;10.62;73.37;100498.16;5078974;28;20724;-70
2021/11/07 13:36:54;;;;;;;11.63;4.50;;;;;;;10.55;74.20;100499.91;5079174;28;20403;-71
2021/11/07 13:39:38;;;;;;;12.17;4.87;;;;;;;10.69;75.07;100506.88;5079183;28;20434;-70
2021/11/07 13:42:16;;;;;;;11.90;4.43;;;;;;;10.66;75.17;100494.72;5078762;28;20527;-70
2021/11/07 13:44:58;;;;;;;18.37;5.83;;;;;;;10.93;74.86;100495.72;5078774;28;20389;-72
2021/11/07 13:47:31;;;;;;;17.33;5.37;;;;;;;10.84;75.77;100480.91;5078632;28;20474;-73
2021/11/07 13:49:59;;;;;;;11.83;5.57;;;;;;;10.98;75.86;100483.56;5061235;28;20474;-70
2021/11/07 13:52:29;;;;;;;16.00;4.70;;;;;;;11.09;74.83;100489.69;5082232;28;20385;-72
2021/11/07 13:54:55;;;;;;;13.73;5.73;;;;;;;9.90;76.98;100493.31;5098797;28;20529;-72
2021/11/07 13:57:31;;;;;;;14.50;5.40;;;;;;;10.28;77.07;100495.31;5099209;28;20501;-72
2021/11/07 13:59:57;;;;;;;12.60;5.50;;;;;;;10.27;77.61;100504.03;5098756;28;20172;-71
2021/11/07 14:02:23;;;;;;;17.17;5.43;;;;;;;10.26;79.13;100508.34;5098515;28;20396;-73